Terminal Aerodrome Forecast
Issued by NWS Wakefield, VA

Home | Current Version | Previous Version | Text Only | Print | Product List | Glossary On
Versions: 1 2 3 4 5 6 7 8 9 10 11 12 13 14 15 16 17 18 19
217
FTUS41 KAKQ 292331
TAFORF
TAF
KORF 292331Z 3000/3024 14007KT P6SM SCT015 OVC050
      TEMPO 3002/3005 3SM -SHRA BR OVC015
     FM300500 17005KT 5SM BR OVC015
     FM300800 15006KT 4SM -RA BR OVC008
     FM301300 14007KT 5SM -RA BR OVC010
     FM301600 15008KT P6SM SCT015 BKN030=

USA.gov is the U.S. government's official web portal to all federal, state and local government web resources and services.